createdAt,value
2019-03-28T00:01:52.498Z,98.20
2019-03-28T00:04:57.231Z,98.40
2019-03-28T00:08:01.998Z,98.50
2019-03-28T00:11:06.487Z,98.40
2019-03-28T00:14:11.225Z,98.50
2019-03-28T00:17:15.656Z,98.70
2019-03-28T00:20:20.094Z,98.50
2019-03-28T00:23:34.901Z,98.70
2019-03-28T00:26:39.669Z,98.70
2019-03-28T00:29:44.102Z,98.70
2019-03-28T00:32:48.566Z,98.80
2019-03-28T00:35:52.995Z,98.60
2019-03-28T00:38:57.432Z,98.70
2019-03-28T00:42:01.865Z,98.70
2019-03-28T00:45:08.372Z,98.90
2019-03-28T00:48:13.090Z,99.10
2019-03-28T00:51:17.820Z,98.80
2019-03-28T00:54:22.260Z,99.00
2019-03-28T00:57:26.690Z,99.40
2019-03-28T01:00:31.399Z,99.50
2019-03-28T01:03:36.332Z,99.60
2019-03-28T01:06:41.120Z,99.40
2019-03-28T01:09:45.560Z,99.40
2019-03-28T01:12:49.996Z,99.50
2019-03-28T01:15:54.740Z,99.60
2019-03-28T01:18:59.479Z,99.70
2019-03-28T01:22:03.903Z,99.60
2019-03-28T01:25:08.681Z,99.40
2019-03-28T01:28:13.686Z,99.30
2019-03-28T01:31:18.120Z,99.30
2019-03-28T01:34:22.559Z,99.60
2019-03-28T01:37:26.993Z,99.80
2019-03-28T01:40:31.779Z,99.90
2019-03-28T01:43:36.203Z,99.90
2019-03-28T01:46:40.926Z,99.90
2019-03-28T01:49:45.367Z,99.90
2019-03-28T01:52:49.797Z,99.90
2019-03-28T01:55:54.505Z,99.90
2019-03-28T01:58:59.502Z,99.90
2019-03-28T02:02:03.949Z,99.90
2019-03-28T02:05:08.651Z,99.80
2019-03-28T02:08:13.076Z,99.80
2019-03-28T02:11:17.512Z,99.90
2019-03-28T02:14:22.184Z,99.50
2019-03-28T02:17:26.623Z,99.90
2019-03-28T02:20:31.065Z,99.80
2019-03-28T02:23:36.236Z,99.90
2019-03-28T02:26:41.001Z,99.90
2019-03-28T02:29:45.724Z,99.90
2019-03-28T02:32:50.453Z,99.90
2019-03-28T02:35:54.884Z,99.90
2019-03-28T02:38:59.311Z,99.90
2019-03-28T02:42:03.752Z,99.90
2019-03-28T02:45:08.604Z,99.90
2019-03-28T02:48:13.293Z,99.90
2019-03-28T02:51:18.064Z,99.90
2019-03-28T02:54:22.495Z,99.90
2019-03-28T02:57:40.174Z,99.90
2019-03-28T03:00:33.448Z,99.90
2019-03-28T03:03:37.862Z,99.90
2019-03-28T03:06:42.300Z,99.90
2019-03-28T03:09:46.740Z,99.90
2019-03-28T03:12:51.174Z,99.90
2019-03-28T03:15:56.759Z,99.90
2019-03-28T03:19:01.571Z,99.90
2019-03-28T03:22:06.353Z,99.90
2019-03-28T03:25:11.703Z,99.90
2019-03-28T03:28:16.428Z,99.90
2019-03-28T03:31:22.073Z,99.90
2019-03-28T03:34:27.080Z,99.90
2019-03-28T03:37:31.544Z,99.90
2019-03-28T03:40:35.986Z,99.90
2019-03-28T03:43:40.710Z,99.90
2019-03-28T03:46:45.141Z,99.90
2019-03-28T03:49:49.580Z,99.90
2019-03-28T03:52:54.021Z,99.90
2019-03-28T03:55:58.449Z,99.90
2019-03-28T03:59:02.886Z,99.90
2019-03-28T04:02:07.311Z,99.90
2019-03-28T04:05:12.650Z,99.90
2019-03-28T04:08:17.163Z,99.90
2019-03-28T04:11:21.947Z,99.90
2019-03-28T04:14:26.674Z,99.90
2019-03-28T04:17:31.105Z,99.90
2019-03-28T04:20:35.601Z,99.90
2019-03-28T04:23:40.354Z,99.90
2019-03-28T04:26:45.082Z,99.90
2019-03-28T04:29:49.821Z,99.90
2019-03-28T04:32:54.258Z,99.90
2019-03-28T04:35:58.686Z,99.90
2019-03-28T04:39:05.136Z,99.90
2019-03-28T04:42:09.566Z,99.90
2019-03-28T04:45:14.002Z,99.90
2019-03-28T04:48:18.712Z,99.90
2019-03-28T04:51:23.206Z,99.90
2019-03-28T04:54:27.966Z,99.90
2019-03-28T04:57:32.397Z,99.90
2019-03-28T05:00:36.834Z,99.90
2019-03-28T05:03:41.268Z,99.90
2019-03-28T05:06:45.696Z,99.90
2019-03-28T05:09:50.353Z,99.90
2019-03-28T05:12:55.121Z,99.90
2019-03-28T05:15:59.859Z,99.90
2019-03-28T05:19:04.584Z,99.90
2019-03-28T05:22:09.022Z,99.90
2019-03-28T05:25:13.453Z,99.90
2019-03-28T05:28:18.165Z,99.90
2019-03-28T05:31:22.591Z,99.90
2019-03-28T05:34:27.036Z,99.90
2019-03-28T05:37:31.489Z,99.90
2019-03-28T05:40:36.602Z,99.90
2019-03-28T05:43:41.302Z,99.90
2019-03-28T05:46:45.789Z,99.90
2019-03-28T05:49:50.563Z,99.90
2019-03-28T05:52:55.290Z,99.90
2019-03-28T05:55:59.721Z,99.90
2019-03-28T05:59:10.819Z,99.90
2019-03-28T06:02:10.588Z,99.90
2019-03-28T06:05:15.747Z,99.90
2019-03-28T06:08:20.200Z,99.90
2019-03-28T06:11:24.901Z,99.90
2019-03-28T06:14:29.637Z,99.90
2019-03-28T06:17:34.366Z,99.90
2019-03-28T06:20:38.802Z,99.90
2019-03-28T06:23:43.238Z,99.00
2019-03-28T06:26:49.946Z,97.30
2019-03-28T06:29:54.111Z,94.90
2019-03-28T06:32:59.103Z,92.20
2019-03-28T06:36:03.886Z,88.40
2019-03-28T06:39:08.328Z,83.00
2019-03-28T06:42:12.768Z,79.00
2019-03-28T06:45:17.557Z,75.00
2019-03-28T06:48:22.005Z,69.60
2019-03-28T06:51:26.714Z,66.40
2019-03-28T06:54:31.468Z,63.00
2019-03-28T06:57:36.176Z,60.10
2019-03-28T07:00:40.646Z,56.80
2019-03-28T07:03:47.370Z,54.90
2019-03-28T07:06:51.796Z,53.70
2019-03-28T07:09:56.250Z,52.50
2019-03-28T07:13:00.962Z,50.70
2019-03-28T07:16:05.797Z,49.90
2019-03-28T07:19:10.237Z,50.40
2019-03-28T07:22:14.756Z,49.90
2019-03-28T07:25:19.477Z,50.80
2019-03-28T07:28:23.907Z,50.70
2019-03-28T07:31:28.353Z,53.50
2019-03-28T07:34:33.055Z,57.00
2019-03-28T07:37:38.549Z,60.30
2019-03-28T07:40:43.537Z,64.20
2019-03-28T07:43:47.984Z,68.70
2019-03-28T07:46:52.438Z,72.40
2019-03-28T07:49:56.955Z,76.80
2019-03-28T07:53:01.388Z,78.10
2019-03-28T07:56:06.164Z,80.60
2019-03-28T07:59:10.890Z,83.00
2019-03-28T08:02:15.328Z,85.10
2019-03-28T08:05:19.840Z,87.60
2019-03-28T08:08:24.568Z,90.30
2019-03-28T08:11:29.334Z,90.40
2019-03-28T08:14:33.791Z,91.10
2019-03-28T08:17:38.222Z,90.60
2019-03-28T08:20:42.688Z,91.10
2019-03-28T08:23:47.420Z,92.00
2019-03-28T08:26:51.852Z,91.90
2019-03-28T08:29:57.859Z,92.20
2019-03-28T08:33:04.160Z,92.30
2019-03-28T08:36:08.695Z,92.10
2019-03-28T08:39:13.410Z,91.70
2019-03-28T08:42:17.867Z,91.60
2019-03-28T08:45:22.685Z,90.80
2019-03-28T08:48:27.405Z,91.20
2019-03-28T08:51:32.882Z,90.20
2019-03-28T08:54:37.581Z,89.70
2019-03-28T08:57:42.023Z,89.50
2019-03-28T09:00:52.442Z,88.90
2019-03-28T09:03:53.311Z,89.40
2019-03-28T09:06:57.761Z,87.30
2019-03-28T09:10:02.197Z,85.70
2019-03-28T09:13:06.652Z,86.00
2019-03-28T09:16:11.140Z,85.70
2019-03-28T09:19:15.620Z,88.90
2019-03-28T09:22:20.359Z,86.00
2019-03-28T09:25:24.795Z,86.00
2019-03-28T09:28:29.516Z,83.20
2019-03-28T09:31:33.960Z,81.90
2019-03-28T09:34:38.671Z,82.10
2019-03-28T09:37:43.118Z,82.30
2019-03-28T09:40:47.936Z,80.00
2019-03-28T09:43:55.523Z,79.90
2019-03-28T09:46:58.829Z,84.60
2019-03-28T09:50:03.837Z,80.10
2019-03-28T09:53:08.288Z,80.50
2019-03-28T09:56:12.727Z,81.30
2019-03-28T09:59:17.170Z,77.90
2019-03-28T10:02:21.612Z,78.50
2019-03-28T10:05:26.050Z,74.40
2019-03-28T10:08:30.497Z,73.00
2019-03-28T10:11:35.244Z,75.90
2019-03-28T10:14:39.676Z,74.40
2019-03-28T10:17:44.394Z,72.80
2019-03-28T10:20:48.838Z,74.30
2019-03-28T10:23:53.286Z,71.90
2019-03-28T10:26:58.075Z,76.70
2019-03-28T10:30:08.310Z,76.60
2019-03-28T10:33:13.381Z,76.50
2019-03-28T10:36:17.817Z,81.10
2019-03-28T10:39:22.307Z,79.40
2019-03-28T10:42:26.798Z,76.60
2019-03-28T10:45:33.591Z,76.50
2019-03-28T10:48:37.874Z,78.10
2019-03-28T10:51:42.386Z,77.60
2019-03-28T10:54:46.861Z,73.30
2019-03-28T10:57:51.666Z,76.50
2019-03-28T11:00:56.532Z,76.60
2019-03-28T11:04:01.314Z,72.80
2019-03-28T11:07:05.800Z,74.90
2019-03-28T11:10:10.439Z,73.20
2019-03-28T11:13:14.939Z,71.40
2019-03-28T11:16:19.408Z,70.90
2019-03-28T11:19:23.902Z,69.70
2019-03-28T11:22:28.378Z,70.40
2019-03-28T11:25:32.919Z,72.20
2019-03-28T11:28:37.740Z,73.00
2019-03-28T11:31:47.768Z,72.50
2019-03-28T11:34:48.425Z,72.30
2019-03-28T11:37:52.909Z,73.60
2019-03-28T11:40:57.386Z,70.40
2019-03-28T11:44:01.871Z,71.50
2019-03-28T11:47:06.636Z,71.50
2019-03-28T11:50:12.021Z,72.30
2019-03-28T11:53:16.639Z,70.40
2019-03-28T11:56:21.441Z,72.00
2019-03-28T11:59:25.932Z,68.60
2019-03-28T12:02:30.723Z,65.40
2019-03-28T12:05:35.176Z,67.90
2019-03-28T12:08:39.664Z,68.20
2019-03-28T12:11:44.139Z,64.30
2019-03-28T12:14:48.625Z,65.90
2019-03-28T12:17:53.106Z,65.50
2019-03-28T12:20:57.581Z,68.70
2019-03-28T12:24:02.068Z,68.10
2019-03-28T12:27:06.559Z,66.00
2019-03-28T12:30:15.791Z,67.70
2019-03-28T12:33:19.546Z,68.20
2019-03-28T12:36:24.274Z,69.20
2019-03-28T12:39:28.922Z,69.80
2019-03-28T12:42:33.403Z,68.90
2019-03-28T12:45:37.880Z,68.20
2019-03-28T12:48:42.362Z,70.60
2019-03-28T12:51:47.220Z,69.40
2019-03-28T12:54:52.042Z,71.10
2019-03-28T12:57:56.789Z,74.60
2019-03-28T13:01:02.015Z,74.90
2019-03-28T13:04:06.577Z,71.40
2019-03-28T13:07:11.386Z,71.80
2019-03-28T13:10:16.111Z,71.20
2019-03-28T13:13:20.943Z,72.40
2019-03-28T13:16:25.428Z,72.10
2019-03-28T13:19:29.910Z,73.20
2019-03-28T13:22:34.378Z,73.00
2019-03-28T13:25:38.858Z,73.30
2019-03-28T13:28:43.339Z,74.20
2019-03-28T13:31:47.810Z,74.90
2019-03-28T13:34:52.795Z,74.70
2019-03-28T13:37:57.767Z,74.80
2019-03-28T13:41:02.254Z,74.50
2019-03-28T13:44:06.741Z,74.20
2019-03-28T13:47:11.544Z,76.10
2019-03-28T13:50:18.071Z,76.40
2019-03-28T13:53:22.851Z,76.30
2019-03-28T13:56:27.686Z,78.20
2019-03-28T13:59:35.226Z,78.70
2019-03-28T14:02:38.369Z,77.20
2019-03-28T14:05:43.102Z,77.80
2019-03-28T14:08:47.602Z,77.20
2019-03-28T14:11:52.075Z,75.20
2019-03-28T14:14:56.564Z,75.10
2019-03-28T14:18:01.027Z,74.70
2019-03-28T14:21:05.582Z,74.40
2019-03-28T14:24:11.729Z,72.80
2019-03-28T14:27:16.278Z,74.00
2019-03-28T14:30:20.765Z,75.70
2019-03-28T14:33:27.178Z,74.30
2019-03-28T14:36:31.944Z,74.30
2019-03-28T14:39:36.427Z,75.50
2019-03-28T14:42:41.213Z,73.10
2019-03-28T14:45:45.770Z,75.00
2019-03-28T14:48:50.671Z,74.50
2019-03-28T14:51:55.395Z,76.10
2019-03-28T14:55:01.463Z,76.10
2019-03-28T14:58:07.558Z,76.50
2019-03-28T15:01:12.032Z,76.10
2019-03-28T15:04:16.778Z,78.40
2019-03-28T15:07:21.257Z,77.90
2019-03-28T15:10:25.742Z,77.90
2019-03-28T15:13:30.215Z,78.90
2019-03-28T15:16:34.987Z,79.10
2019-03-28T15:19:39.469Z,79.60
2019-03-28T15:22:43.941Z,79.60
2019-03-28T15:25:48.429Z,79.80
2019-03-28T15:28:53.189Z,80.90
2019-03-28T15:31:57.667Z,81.80
2019-03-28T15:35:02.446Z,80.10
2019-03-28T15:38:06.916Z,80.00
2019-03-28T15:41:11.701Z,81.20
2019-03-28T15:44:16.249Z,80.90
2019-03-28T15:47:21.058Z,82.40
2019-03-28T15:50:25.543Z,82.60
2019-03-28T15:53:30.017Z,83.10
2019-03-28T15:56:34.494Z,82.50
2019-03-28T15:59:38.973Z,82.90
2019-03-28T16:02:43.461Z,83.00
2019-03-28T16:05:58.106Z,84.00
2019-03-28T16:08:54.518Z,83.70
2019-03-28T16:12:02.857Z,82.80
2019-03-28T16:15:09.087Z,82.80
2019-03-28T16:18:14.029Z,83.50
2019-03-28T16:21:19.465Z,82.30
2019-03-28T16:24:24.483Z,82.70
2019-03-28T16:27:29.319Z,82.30
2019-03-28T16:30:37.638Z,82.30
2019-03-28T16:33:42.464Z,84.00
2019-03-28T16:36:46.948Z,84.60
2019-03-28T16:39:51.431Z,84.00
2019-03-28T16:42:55.931Z,84.90
2019-03-28T16:46:00.403Z,85.70
2019-03-28T16:49:04.884Z,86.40
2019-03-28T16:52:09.363Z,86.30
2019-03-28T16:55:25.834Z,85.80
2019-03-28T16:58:20.469Z,87.00
2019-03-28T17:01:25.252Z,86.60
2019-03-28T17:04:30.081Z,86.50
2019-03-28T17:07:36.720Z,86.10
2019-03-28T17:10:50.178Z,86.90
2019-03-28T17:13:54.656Z,87.40
2019-03-28T17:16:59.563Z,87.80
2019-03-28T17:20:05.183Z,87.70
2019-03-28T17:23:10.038Z,87.90
2019-03-28T17:26:14.875Z,88.10
2019-03-28T17:29:19.922Z,89.00
2019-03-28T17:32:24.745Z,89.50
2019-03-28T17:35:29.816Z,89.80
2019-03-28T17:38:34.474Z,89.80
2019-03-28T17:41:39.256Z,89.80
2019-03-28T17:44:43.785Z,90.10
2019-03-28T17:47:48.281Z,90.30
2019-03-28T17:50:53.034Z,90.40
2019-03-28T17:53:57.734Z,91.00
2019-03-28T17:57:02.597Z,91.10
2019-03-28T18:00:09.183Z,91.10
2019-03-28T18:03:14.104Z,91.50
2019-03-28T18:06:18.576Z,91.50
2019-03-28T18:09:23.057Z,91.60
2019-03-28T18:12:29.625Z,91.50
2019-03-28T18:15:34.356Z,91.70
2019-03-28T18:18:38.938Z,92.10
2019-03-28T18:21:45.143Z,92.10
2019-03-28T18:24:49.710Z,92.20
2019-03-28T18:27:54.200Z,92.50
2019-03-28T18:30:58.686Z,92.70
2019-03-28T18:34:03.453Z,93.20
2019-03-28T18:37:08.386Z,93.30
2019-03-28T18:40:13.203Z,93.60
2019-03-28T18:43:17.684Z,93.50
2019-03-28T18:46:22.486Z,93.40
2019-03-28T18:49:27.319Z,93.30
2019-03-28T18:52:31.790Z,93.40
2019-03-28T18:55:36.262Z,93.20
2019-03-28T18:58:40.750Z,93.30
2019-03-28T19:01:45.217Z,93.10
2019-03-28T19:04:49.705Z,93.50
2019-03-28T19:07:54.181Z,93.50
2019-03-28T19:10:58.655Z,93.60
2019-03-28T19:14:03.432Z,93.60
2019-03-28T19:17:08.060Z,93.80
2019-03-28T19:20:12.685Z,93.70
2019-03-28T19:23:17.509Z,93.80
2019-03-28T19:26:22.158Z,93.90
2019-03-28T19:29:26.653Z,93.70
2019-03-28T19:32:31.133Z,93.80
2019-03-28T19:35:36.752Z,93.70
2019-03-28T19:38:42.181Z,93.90
2019-03-28T19:41:47.369Z,94.10
2019-03-28T19:44:52.998Z,94.20
2019-03-28T19:47:57.548Z,94.00
2019-03-28T19:51:02.256Z,93.80
2019-03-28T19:54:07.073Z,93.70
2019-03-28T19:57:12.378Z,93.80
2019-03-28T20:00:18.025Z,93.90
2019-03-28T20:03:23.590Z,93.80
2019-03-28T20:06:28.456Z,94.20
2019-03-28T20:09:32.944Z,94.00
2019-03-28T20:12:37.425Z,94.20
2019-03-28T20:15:41.905Z,94.40
2019-03-28T20:18:46.656Z,94.50
2019-03-28T20:21:51.486Z,94.70
2019-03-28T20:24:58.261Z,94.90
2019-03-28T20:28:02.982Z,94.80
2019-03-28T20:31:07.544Z,94.80
2019-03-28T20:34:12.358Z,94.90
2019-03-28T20:37:16.835Z,94.90
2019-03-28T20:40:21.382Z,95.00
2019-03-28T20:43:26.267Z,95.20
2019-03-28T20:46:31.322Z,95.30
2019-03-28T20:49:35.808Z,95.20
2019-03-28T20:52:40.646Z,95.40
2019-03-28T20:55:45.470Z,95.40
2019-03-28T20:58:49.986Z,95.50
2019-03-28T21:01:54.471Z,95.70
2019-03-28T21:04:59.359Z,95.80
2019-03-28T21:08:04.461Z,96.20
2019-03-28T21:11:08.943Z,96.10
2019-03-28T21:14:13.436Z,96.20
2019-03-28T21:17:18.177Z,96.40
2019-03-28T21:20:23.015Z,96.40
2019-03-28T21:23:27.844Z,96.50
2019-03-28T21:26:32.539Z,96.50
2019-03-28T21:29:48.294Z,96.40
2019-03-28T21:32:54.657Z,96.60
2019-03-28T21:35:49.905Z,96.80
2019-03-28T21:38:54.638Z,96.80
2019-03-28T21:41:59.093Z,96.80
2019-03-28T21:45:03.915Z,96.90
2019-03-28T21:48:08.358Z,96.80
2019-03-28T21:51:13.154Z,96.80
2019-03-28T21:54:17.575Z,96.90
2019-03-28T21:57:22.299Z,97.00
2019-03-28T22:00:27.034Z,97.00
2019-03-28T22:03:31.467Z,96.80
2019-03-28T22:06:42.695Z,97.00
2019-03-28T22:09:42.350Z,97.10
2019-03-28T22:12:46.791Z,97.60
2019-03-28T22:15:51.502Z,97.90
2019-03-28T22:18:55.933Z,97.80
2019-03-28T22:22:01.959Z,97.90
2019-03-28T22:25:07.632Z,97.90
2019-03-28T22:28:12.062Z,98.10
2019-03-28T22:31:16.538Z,97.90
2019-03-28T22:34:20.979Z,98.10
2019-03-28T22:37:25.745Z,97.60
2019-03-28T22:40:30.322Z,97.30
2019-03-28T22:43:38.610Z,96.90
2019-03-28T22:46:42.186Z,97.10
2019-03-28T22:49:46.637Z,96.90
2019-03-28T22:52:51.928Z,97.10
2019-03-28T22:55:56.687Z,97.40
2019-03-28T22:59:01.207Z,97.50
2019-03-28T23:02:05.781Z,97.70
2019-03-28T23:05:11.129Z,97.90
2019-03-28T23:08:15.583Z,98.10
2019-03-28T23:11:20.041Z,98.20
2019-03-28T23:14:24.467Z,98.40
2019-03-28T23:17:28.909Z,98.30
2019-03-28T23:20:33.851Z,98.40
2019-03-28T23:23:38.470Z,98.30
2019-03-28T23:26:42.918Z,98.20
2019-03-28T23:29:47.614Z,98.10
2019-03-28T23:32:52.052Z,98.10
2019-03-28T23:35:56.758Z,98.20
2019-03-28T23:39:01.188Z,98.20
2019-03-28T23:42:05.631Z,98.00
2019-03-28T23:45:12.199Z,97.90
2019-03-28T23:48:16.912Z,97.90
2019-03-28T23:51:21.641Z,98.10
2019-03-28T23:54:27.015Z,97.80
2019-03-28T23:57:31.800Z,97.80
